Time;durP1;ratioP1;P1;durP2;ratioP2;P2;SDS_P1;SDS_P2;PMS_P1;PMS_P2;Temp;Humidity;BMP_temperature;BMP_pressure;BME280_temperature;BME280_humidity;BME280_pressure;Samples;Min_cycle;Max_cycle;Signal;HPM_P1;HPM_P2
2021/04/15 00:01:21;;;;;;;10.30;6.87;;;2.30;1.00;;;;;;5095500;28;20163;-69
2021/04/15 00:03:47;;;;;;;10.45;7.25;;;1.90;1.00;;;;;;5095388;28;20187;-69
2021/04/15 00:06:22;;;;;;;8.40;6.60;;;1.70;1.00;;;;;;5095452;28;20229;-68
2021/04/15 00:08:48;;;;;;;9.73;7.65;;;1.60;1.00;;;;;;5095177;28;20283;-68
2021/04/15 00:11:17;;;;;;;10.70;6.65;;;1.50;1.00;;;;;;5095272;28;20167;-69
2021/04/15 00:13:49;;;;;;;12.75;7.03;;;1.90;1.00;;;;;;5095201;28;20235;-69
2021/04/15 00:16:15;;;;;;;9.32;7.50;;;2.00;1.00;;;;;;5095403;28;20160;-69
2021/04/15 00:18:42;;;;;;;10.35;7.20;;;1.80;1.00;;;;;;5095407;28;20231;-69
2021/04/15 00:21:09;;;;;;;7.95;6.45;;;1.70;1.00;;;;;;5095105;28;20197;-69
2021/04/15 00:23:35;;;;;;;11.05;6.55;;;1.70;1.00;;;;;;5094859;28;20199;-69
2021/04/15 00:26:03;;;;;;;8.67;6.00;;;2.00;1.00;;;;;;5094969;28;20175;-69
2021/04/15 00:28:29;;;;;;;9.35;7.05;;;2.10;1.00;;;;;;5094942;28;20406;-69
2021/04/15 00:30:55;;;;;;;11.90;6.20;;;1.90;1.00;;;;;;5095093;28;20222;-68
2021/04/15 00:33:21;;;;;;;12.00;6.73;;;1.70;1.00;;;;;;5095086;28;20406;-69
2021/04/15 00:35:48;;;;;;;7.63;6.82;;;1.60;1.00;;;;;;5094819;28;20401;-69
2021/04/15 00:38:15;;;;;;;8.90;6.68;;;1.80;1.00;;;;;;5095568;28;20182;-68
2021/04/15 00:40:43;;;;;;;7.45;6.68;;;2.00;1.00;;;;;;5094991;28;20184;-69
2021/04/15 00:43:10;;;;;;;10.15;6.18;;;2.10;1.00;;;;;;5094646;28;20617;-69
2021/04/15 00:45:38;;;;;;;8.32;6.65;;;1.90;1.00;;;;;;5094657;28;20179;-69
2021/04/15 00:48:28;;;;;;;7.90;6.30;;;1.90;1.00;;;;;;5094806;28;20171;-69
2021/04/15 00:51:01;;;;;;;8.40;6.03;;;1.90;1.00;;;;;;5094455;28;20207;-69
2021/04/15 00:53:44;;;;;;;6.90;6.25;;;2.10;1.00;;;;;;5094976;28;20292;-68
2021/04/15 00:56:11;;;;;;;11.85;7.63;;;2.10;1.00;;;;;;5094741;28;20152;-69
2021/04/15 00:58:37;;;;;;;7.63;6.05;;;1.90;1.00;;;;;;5094463;28;20229;-69
2021/04/15 01:01:04;;;;;;;13.10;6.40;;;2.00;1.00;;;;;;5094250;28;20175;-69
2021/04/15 01:03:31;;;;;;;9.55;6.40;;;2.00;1.00;;;;;;5094034;28;20456;-69
2021/04/15 01:05:56;;;;;;;7.32;6.10;;;2.00;1.00;;;;;;5094145;28;20171;-69
2021/04/15 01:08:22;;;;;;;6.03;5.40;;;1.80;1.00;;;;;;5093957;28;20698;-69
2021/04/15 01:11:13;;;;;;;8.30;6.10;;;1.70;1.00;;;;;;5094278;28;20203;-69
2021/04/15 01:13:56;;;;;;;6.32;5.30;;;1.50;1.00;;;;;;5094230;28;20225;-69
2021/04/15 01:16:34;;;;;;;6.05;5.45;;;1.30;1.00;;;;;;5094348;28;20221;-69
2021/04/15 01:19:18;;;;;;;10.23;6.05;;;1.30;1.00;;;;;;5094318;28;20160;-69
2021/04/15 01:21:53;;;;;;;6.10;5.43;;;1.30;1.00;;;;;;5094289;28;20205;-69
2021/04/15 01:24:27;;;;;;;7.65;5.50;;;1.30;1.00;;;;;;5093918;28;20270;-69
2021/04/15 01:27:10;;;;;;;6.88;6.15;;;1.50;1.00;;;;;;5094096;28;20183;-68
2021/04/15 01:29:50;;;;;;;7.45;5.82;;;1.40;1.00;;;;;;5093697;28;20269;-69
2021/04/15 01:32:47;;;;;;;6.07;4.88;;;1.20;1.00;;;;;;5093973;28;20148;-69
2021/04/15 01:35:33;;;;;;;7.25;5.65;;;1.20;1.00;;;;;;5093901;28;20195;-69
2021/04/15 01:38:09;;;;;;;9.82;6.00;;;1.20;1.00;;;;;;5093664;28;20197;-67
2021/04/15 01:40:40;;;;;;;6.47;5.20;;;1.10;1.00;;;;;;5093541;28;20170;-67
2021/04/15 01:43:25;;;;;;;6.78;5.25;;;1.20;1.00;;;;;;5093746;28;20668;-67
2021/04/15 01:45:53;;;;;;;5.78;5.15;;;1.40;19.00;;;;;;5093494;28;20551;-67
2021/04/15 01:48:37;;;;;;;5.60;4.90;;;1.70;1.00;;;;;;5093476;28;20181;-67
2021/04/15 01:51:20;;;;;;;6.13;5.15;;;1.60;1.00;;;;;;5093563;28;20183;-66
2021/04/15 01:53:55;;;;;;;7.57;5.32;;;1.30;1.00;;;;;;5093270;28;20190;-67
2021/04/15 01:56:32;;;;;;;5.55;4.80;;;1.20;1.00;;;;;;5092781;28;20567;-67
2021/04/15 01:59:08;;;;;;;5.93;4.40;;;1.10;1.00;;;;;;5093791;28;20694;-68
2021/04/15 02:01:37;;;;;;;8.35;4.78;;;1.30;1.00;;;;;;5093466;28;20163;-67
2021/04/15 02:04:12;;;;;;;7.57;5.13;;;1.50;1.00;;;;;;5093040;28;20244;-67
2021/04/15 02:06:43;;;;;;;8.00;5.93;;;1.30;1.00;;;;;;5093128;28;20238;-67
2021/04/15 02:09:12;;;;;;;6.53;5.22;;;1.20;1.00;;;;;;5093359;28;20197;-67
2021/04/15 02:11:46;;;;;;;7.78;5.40;;;1.20;1.00;;;;;;5093386;28;20510;-67
2021/04/15 02:14:22;;;;;;;9.23;5.82;;;1.10;1.00;;;;;;5093330;28;20221;-68
2021/04/15 02:16:51;;;;;;;8.63;4.88;;;1.30;1.00;;;;;;5093204;28;20159;-68
2021/04/15 02:19:41;;;;;;;8.63;5.80;;;1.40;1.00;;;;;;5093351;28;20175;-68
2021/04/15 02:22:26;;;;;;;45.10;22.83;;;1.40;1.00;;;;;;5093259;28;20178;-68
2021/04/15 02:25:01;;;;;;;10.57;6.30;;;1.30;1.00;;;;;;5092961;28;20163;-68
2021/04/15 02:27:43;;;;;;;7.30;5.55;;;1.70;1.00;;;;;;5093262;28;20171;-68
2021/04/15 02:30:20;;;;;;;10.07;5.43;;;1.30;1.00;;;;;;5092959;28;20186;-68
2021/04/15 02:33:07;;;;;;;10.45;6.15;;;1.20;1.00;;;;;;5093025;28;20190;-67
2021/04/15 02:35:36;;;;;;;8.75;6.20;;;1.00;1.00;;;;;;5092886;28;20663;-68
2021/04/15 02:38:02;;;;;;;12.68;6.20;;;1.20;1.00;;;;;;5093210;28;20568;-67
2021/04/15 02:40:35;;;;;;;7.05;5.90;;;1.60;1.00;;;;;;5092810;28;20175;-67
2021/04/15 02:43:07;;;;;;;6.90;5.30;;;1.70;1.00;;;;;;5093166;28;20184;-68
2021/04/15 02:45:40;;;;;;;7.65;5.63;;;1.70;1.00;;;;;;5093460;28;20167;-68
2021/04/15 02:48:11;;;;;;;10.50;6.53;;;1.70;1.00;;;;;;5092795;28;20620;-68
2021/04/15 02:50:38;;;;;;;8.35;5.38;;;1.40;1.00;;;;;;5092718;28;20689;-68
2021/04/15 02:53:10;;;;;;;6.53;5.50;;;1.30;1.00;;;;;;5092961;28;20191;-68
2021/04/15 02:55:43;;;;;;;5.95;5.20;;;1.20;1.00;;;;;;5092985;28;20156;-68
2021/04/15 02:58:18;;;;;;;8.07;5.03;;;1.40;1.00;;;;;;5092653;28;20174;-68
2021/04/15 03:00:46;;;;;;;6.10;5.22;;;1.50;1.00;;;;;;5092666;28;20212;-68
2021/04/15 03:03:15;;;;;;;6.35;5.22;;;1.50;1.00;;;;;;5092578;28;20179;-68
2021/04/15 03:05:53;;;;;;;22.92;12.15;;;1.20;1.00;;;;;;5092617;28;20168;-68
2021/04/15 03:08:23;;;;;;;11.75;5.78;;;1.50;1.00;;;;;;5094316;28;20175;-68
2021/04/15 03:10:57;;;;;;;11.25;6.55;;;1.50;1.00;;;;;;5096331;28;20187;-68
2021/04/15 03:13:35;;;;;;;9.95;5.85;;;1.60;1.00;;;;;;5096693;28;20190;-68
2021/04/15 03:16:04;;;;;;;10.98;6.18;;;1.50;1.00;;;;;;5096306;28;20179;-68
2021/04/15 03:18:42;;;;;;;8.18;5.60;;;1.40;1.00;;;;;;5096606;28;20201;-68
2021/04/15 03:21:34;;;;;;;8.38;6.30;;;1.20;1.00;;;;;;5096578;28;20573;-68
2021/04/15 03:24:09;;;;;;;8.07;6.22;;;1.10;1.00;;;;;;5096350;28;20180;-68
2021/04/15 03:26:37;;;;;;;9.07;7.03;;;1.10;1.00;;;;;;5096106;28;20166;-68
2021/04/15 03:29:28;;;;;;;6.93;5.97;;;0.90;1.00;;;;;;5096374;28;20175;-68
2021/04/15 03:32:17;;;;;;;6.85;5.40;;;1.10;1.00;;;;;;5096382;28;20254;-67
2021/04/15 03:34:49;;;;;;;6.18;5.57;;;1.10;1.00;;;;;;5095897;28;20190;-68
2021/04/15 03:37:22;;;;;;;12.57;5.97;;;1.10;1.00;;;;;;5096307;28;20234;-68
2021/04/15 03:39:51;;;;;;;9.50;6.20;;;0.90;1.00;;;;;;5096230;28;20167;-68
2021/04/15 03:42:33;;;;;;;7.25;6.28;;;1.30;1.00;;;;;;5095880;28;20229;-68
2021/04/15 03:45:06;;;;;;;7.95;6.07;;;1.30;1.00;;;;;;5095852;28;20160;-68
2021/04/15 03:47:39;;;;;;;6.40;5.35;;;1.20;1.00;;;;;;5095784;28;20175;-68
2021/04/15 03:50:17;;;;;;;7.07;6.18;;;1.30;1.00;;;;;;5095988;28;20186;-67
2021/04/15 03:53:04;;;;;;;8.73;6.65;;;1.50;1.00;;;;;;5095550;28;20604;-67
2021/04/15 03:55:35;;;;;;;8.30;6.10;;;1.60;1.00;;;;;;5095688;28;20152;-68
2021/04/15 03:58:12;;;;;;;9.05;6.70;;;1.40;1.00;;;;;;5095634;28;20148;-68
2021/04/15 04:00:43;;;;;;;6.65;5.80;;;1.50;1.00;;;;;;5095538;28;20159;-68
2021/04/15 04:03:12;;;;;;;10.77;6.30;;;1.70;1.00;;;;;;5095511;28;20635;-68
2021/04/15 04:05:43;;;;;;;9.85;5.60;;;1.70;1.00;;;;;;5095419;28;20170;-68
2021/04/15 04:08:16;;;;;;;7.68;5.60;;;1.60;1.00;;;;;;5095272;28;20187;-68
2021/04/15 04:10:45;;;;;;;7.28;6.15;;;1.50;1.00;;;;;;5095559;28;20217;-67
2021/04/15 04:13:25;;;;;;;11.35;7.53;;;1.70;1.00;;;;;;5095534;28;20664;-68
2021/04/15 04:16:00;;;;;;;12.00;6.70;;;1.50;1.00;;;;;;5095249;28;20219;-68
2021/04/15 04:18:50;;;;;;;8.85;6.10;;;1.50;1.00;;;;;;5095156;28;20162;-68
2021/04/15 04:21:32;;;;;;;8.68;6.93;;;1.40;1.00;;;;;;5094954;28;20570;-67
2021/04/15 04:24:06;;;;;;;10.10;8.25;;;1.40;1.00;;;;;;5095121;28;20268;-68
2021/04/15 04:26:38;;;;;;;9.40;7.30;;;1.50;1.00;;;;;;5095090;28;20247;-68
2021/04/15 04:29:06;;;;;;;9.95;6.70;;;1.50;1.00;;;;;;5094842;28;20163;-68
2021/04/15 04:31:44;;;;;;;10.07;7.63;;;1.90;1.00;;;;;;5094967;28;20191;-67
2021/04/15 04:34:17;;;;;;;14.95;7.88;;;1.60;1.00;;;;;;5094849;28;20193;-68
2021/04/15 04:36:44;;;;;;;11.25;8.10;;;1.40;1.00;;;;;;5094744;28;20166;-68
2021/04/15 04:39:14;;;;;;;11.38;8.02;;;1.40;1.00;;;;;;5094814;28;20168;-68
2021/04/15 04:41:46;;;;;;;9.15;7.85;;;1.40;1.00;;;;;;5094902;28;20178;-68
2021/04/15 04:44:17;;;;;;;12.32;8.15;;;1.50;1.00;;;;;;5094689;28;20564;-68
2021/04/15 04:46:46;;;;;;;12.48;8.20;;;1.70;1.00;;;;;;5094545;28;20516;-68
2021/04/15 04:49:34;;;;;;;11.82;7.57;;;1.50;1.00;;;;;;5094271;28;20229;-68
2021/04/15 04:52:06;;;;;;;10.43;7.60;;;1.40;1.00;;;;;;5094245;28;20159;-68
2021/04/15 04:54:32;;;;;;;9.75;7.43;;;1.60;1.00;;;;;;5094313;28;20660;-69
2021/04/15 04:57:07;;;;;;;12.17;8.47;;;1.60;1.00;;;;;;5094355;28;20216;-69
2021/04/15 04:59:40;;;;;;;12.75;7.72;;;1.50;1.00;;;;;;5095192;28;20626;-69
2021/04/15 05:02:05;;;;;;;15.45;8.73;;;1.40;1.00;;;;;;5094482;28;20179;-67
2021/04/15 05:04:35;;;;;;;14.63;9.00;;;1.40;1.00;;;;;;5094154;28;20201;-69
2021/04/15 05:07:04;;;;;;;15.07;8.88;;;1.60;1.00;;;;;;5094018;28;20187;-68
2021/04/15 05:09:38;;;;;;;18.50;8.85;;;1.60;1.00;;;;;;5094321;28;20642;-69
2021/04/15 05:12:12;;;;;;;13.90;8.20;;;1.80;1.00;;;;;;5094151;28;20163;-69
2021/04/15 05:14:38;;;;;;;9.43;8.18;;;1.50;1.00;;;;;;5094207;28;20187;-69
2021/04/15 05:17:37;;;;;;;14.63;7.85;;;1.40;1.00;;;;;;5094158;28;20171;-69
2021/04/15 05:20:07;;;;;;;10.73;8.20;;;1.60;1.00;;;;;;5093882;28;20179;-67
2021/04/15 05:23:12;;;;;;;14.77;8.63;;;1.40;1.00;;;;;;5094000;28;20174;-67
2021/04/15 05:26:03;;;;;;;9.82;7.60;;;1.30;1.00;;;;;;5093657;28;20151;-69
2021/04/15 05:28:31;;;;;;;15.68;9.73;;;1.50;1.00;;;;;;5093453;28;20247;-68
2021/04/15 05:30:58;;;;;;;9.63;7.65;;;1.60;1.00;;;;;;5093754;28;20256;-68
2021/04/15 05:33:26;;;;;;;12.98;7.35;;;1.70;1.00;;;;;;5093291;28;20179;-68
2021/04/15 05:36:12;;;;;;;15.52;10.82;;;1.70;1.00;;;;;;5093019;28;20206;-68
2021/04/15 05:38:46;;;;;;;12.70;8.00;;;1.80;1.00;;;;;;5093390;28;20539;-69
2021/04/15 05:41:25;;;;;;;12.93;7.55;;;1.70;1.00;;;;;;5093810;28;20189;-68
2021/04/15 05:43:56;;;;;;;13.63;9.20;;;1.60;1.00;;;;;;5093299;28;20298;-68
2021/04/15 05:46:31;;;;;;;11.35;8.13;;;1.70;1.00;;;;;;5093609;28;20159;-69
2021/04/15 05:49:01;;;;;;;12.13;8.95;;;1.70;1.00;;;;;;5093350;28;20229;-68
2021/04/15 05:51:39;;;;;;;14.95;8.32;;;1.90;1.00;;;;;;5093452;28;20152;-68
2021/04/15 05:54:10;;;;;;;10.95;8.60;;;2.10;1.00;;;;;;5093271;28;20187;-68
2021/04/15 05:56:49;;;;;;;16.75;10.10;;;1.90;1.00;;;;;;5093937;28;20477;-68
2021/04/15 05:59:26;;;;;;;12.20;8.95;;;1.90;1.00;;;;;;5093058;28;20587;-68
2021/04/15 06:02:09;;;;;;;13.35;9.15;;;2.00;1.00;;;;;;5092788;28;20163;-68
2021/04/15 06:04:40;;;;;;;15.80;9.00;;;2.00;1.00;;;;;;5093192;28;20191;-69
2021/04/15 06:07:07;;;;;;;15.68;10.25;;;2.00;1.00;;;;;;5093194;28;20240;-67
2021/04/15 06:09:33;;;;;;;14.38;10.10;;;2.00;1.00;;;;;;5091980;28;20608;-69
2021/04/15 06:12:04;;;;;;;16.55;9.60;;;2.10;1.00;;;;;;5093235;28;20195;-69
2021/04/15 06:14:35;;;;;;;14.40;10.35;;;2.20;1.00;;;;;;5093344;28;20195;-69
2021/04/15 06:17:22;;;;;;;14.77;10.20;;;2.30;1.00;;;;;;5093456;28;20242;-69
2021/04/15 06:20:06;;;;;;;19.10;11.77;;;2.40;1.00;;;;;;5093707;28;20171;-69
2021/04/15 06:22:37;;;;;;;14.25;9.90;;;2.50;1.00;;;;;;5093222;28;20175;-69
2021/04/15 06:25:12;;;;;;;14.65;10.40;;;2.60;1.00;;;;;;5093098;28;20170;-69
2021/04/15 06:27:38;;;;;;;14.63;9.25;;;2.70;1.00;;;;;;5091509;28;20294;-69
2021/04/15 06:30:18;;;;;;;15.20;8.93;;;3.30;1.00;;;;;;5092967;28;20704;-69
2021/04/15 06:32:54;;;;;;;13.18;9.35;;;3.60;1.00;;;;;;5092798;28;20241;-69
2021/04/15 06:35:26;;;;;;;10.98;8.52;;;3.80;1.00;;;;;;5092468;28;20159;-68
2021/04/15 06:38:12;;;;;;;15.82;9.23;;;4.00;1.00;;;;;;5092800;28;20544;-69
2021/04/15 06:40:55;;;;;;;16.83;10.02;;;4.20;1.00;;;;;;5092488;28;20187;-69
2021/04/15 06:43:46;;;;;;;18.70;9.65;;;4.30;1.00;;;;;;5094666;28;20274;-69
2021/04/15 06:46:24;;;;;;;14.25;9.88;;;4.50;1.00;;;;;;5096919;28;20166;-69
2021/04/15 06:49:23;;;;;;;22.80;11.55;;;4.50;1.00;;;;;;5096922;28;20193;-69
2021/04/15 06:52:17;;;;;;;12.32;8.93;;;4.50;1.00;;;;;;5096638;28;20162;-69
2021/04/15 06:55:09;;;;;;;9.50;8.50;;;4.70;1.00;;;;;;5096470;28;20194;-69
2021/04/15 06:58:06;;;;;;;17.50;9.90;;;4.50;1.00;;;;;;5096805;28;20273;-69
2021/04/15 07:00:49;;;;;;;15.82;9.98;;;4.80;1.00;;;;;;5096837;28;20152;-69
2021/04/15 07:03:33;;;;;;;38.10;9.95;;;4.80;1.00;;;;;;5096371;28;20202;-69
2021/04/15 07:06:28;;;;;;;15.25;9.15;;;4.90;1.00;;;;;;5096496;28;20624;-69
2021/04/15 07:09:24;;;;;;;13.13;9.30;;;5.00;1.00;;;;;;5096073;28;20632;-69
2021/04/15 07:12:26;;;;;;;25.00;8.52;;;5.00;1.00;;;;;;5096407;28;20238;-69
2021/04/15 07:15:23;;;;;;;13.90;7.88;;;5.20;1.00;;;;;;5096153;28;20296;-69
2021/04/15 07:18:06;;;;;;;11.25;7.75;;;5.10;1.00;;;;;;5096502;28;20152;-69
2021/04/15 07:20:48;;;;;;;11.88;8.10;;;5.10;1.00;;;;;;5096479;28;20155;-69
2021/04/15 07:23:24;;;;;;;9.07;7.88;;;5.40;1.00;;;;;;5095900;28;20183;-68
2021/04/15 07:25:59;;;;;;;13.65;8.15;;;5.70;1.00;;;;;;5096208;28;20705;-69
2021/04/15 07:28:55;;;;;;;8.15;6.90;;;5.80;1.00;;;;;;5095563;28;20203;-68
2021/04/15 07:31:49;;;;;;;9.95;7.50;;;5.50;1.00;;;;;;5094803;28;20603;-69
2021/04/15 07:34:42;;;;;;;14.98;7.88;;;5.40;1.00;;;;;;5096098;28;20184;-69
2021/04/15 07:37:20;;;;;;;11.77;9.38;;;5.80;1.00;;;;;;5095505;28;20159;-69
2021/04/15 07:40:18;;;;;;;10.38;8.55;;;5.80;1.00;;;;;;5096358;28;20562;-69
2021/04/15 07:42:55;;;;;;;28.30;9.40;;;6.00;1.00;;;;;;5062534;28;20186;-69
2021/04/15 07:45:30;;;;;;;10.60;8.88;;;6.20;1.00;;;;;;5095298;28;20166;-68
2021/04/15 07:48:32;;;;;;;11.75;8.75;;;6.10;1.00;;;;;;5094308;28;20260;-69
2021/04/15 07:51:39;;;;;;;12.63;8.48;;;6.30;1.00;;;;;;5095358;28;20193;-69
2021/04/15 07:54:23;;;;;;;11.68;7.70;;;6.60;1.00;;;;;;5093965;28;20556;-69
2021/04/15 07:57:20;;;;;;;13.60;8.52;;;6.70;1.00;;;;;;5095372;28;20269;-69
2021/04/15 08:00:23;;;;;;;10.40;7.53;;;6.70;1.00;;;;;;5095135;28;20232;-69
2021/04/15 08:03:19;;;;;;;10.18;6.80;;;7.10;1.00;;;;;;5095071;28;20187;-69
2021/04/15 08:05:54;;;;;;;13.93;6.78;;;6.90;1.00;;;;;;5095172;28;20164;-68
2021/04/15 08:08:47;;;;;;;9.10;5.55;;;7.00;1.00;;;;;;5094765;28;20212;-69
2021/04/15 08:11:31;;;;;;;9.13;6.00;;;6.90;1.00;;;;;;5094820;28;20218;-69
2021/04/15 08:14:17;;;;;;;9.52;5.60;;;7.00;1.00;;;;;;5094961;28;20237;-69
2021/04/15 08:17:13;;;;;;;8.23;6.18;;;6.70;1.00;;;;;;5095155;28;20644;-69
2021/04/15 08:19:50;;;;;;;7.60;5.20;;;7.10;1.00;;;;;;5094815;28;20202;-69
2021/04/15 08:22:38;;;;;;;11.23;6.57;;;7.10;1.00;;;;;;5094558;28;20703;-69
2021/04/15 08:25:18;;;;;;;8.18;4.50;;;7.40;1.00;;;;;;5094441;28;20219;-68
2021/04/15 08:28:10;;;;;;;7.90;6.28;;;7.40;1.00;;;;;;5094383;28;20147;-69
2021/04/15 08:30:47;;;;;;;6.53;4.75;;;7.40;1.00;;;;;;5094413;28;20211;-69
2021/04/15 08:33:38;;;;;;;8.15;5.03;;;7.50;99.90;;;;;;5094676;28;20187;-69
2021/04/15 08:36:23;;;;;;;9.38;5.15;;;8.10;99.90;;;;;;5094773;28;20156;-68
2021/04/15 08:39:19;;;;;;;9.40;4.18;;;8.40;99.90;;;;;;5094890;28;20232;-69
2021/04/15 08:42:14;;;;;;;15.43;5.97;;;8.50;99.90;;;;;;5061057;28;20603;-69
2021/04/15 08:44:39;;;;;;;7.95;5.70;;;8.80;99.90;;;;;;5094927;28;20266;-68
2021/04/15 08:47:32;;;;;;;12.93;5.10;;;9.10;99.90;;;;;;5094355;28;20191;-69
2021/04/15 08:50:13;;;;;;;8.77;5.60;;;9.40;99.90;;;;;;5093979;28;20230;-69
2021/04/15 08:52:44;;;;;;;12.10;6.00;;;9.30;99.90;;;;;;5093670;28;20153;-69
2021/04/15 08:55:19;;;;;;;6.25;4.78;;;9.40;99.90;;;;;;5093908;28;20425;-69
2021/04/15 08:57:56;;;;;;;10.40;4.40;;;9.40;99.90;;;;;;5094055;28;20198;-69
2021/04/15 09:00:39;;;;;;;5.75;3.70;;;9.70;99.90;;;;;;5094057;28;20423;-68
2021/04/15 09:03:23;;;;;;;5.27;4.43;;;9.10;99.90;;;;;;5093642;28;20564;-69
2021/04/15 09:06:08;;;;;;;8.95;5.53;;;8.40;99.90;;;;;;5093433;28;20432;-69
2021/04/15 09:09:04;;;;;;;8.02;5.35;;;8.00;99.90;;;;;;5093940;28;20195;-69
2021/04/15 09:11:57;;;;;;;8.68;5.40;;;8.00;99.90;;;;;;5094054;28;20164;-69
2021/04/15 09:14:49;;;;;;;9.35;5.45;;;7.90;99.90;;;;;;5094109;28;20210;-69
2021/04/15 09:17:24;;;;;;;14.00;5.65;;;8.00;99.90;;;;;;5094465;28;20155;-70
2021/04/15 09:19:58;;;;;;;11.18;4.78;;;8.20;99.90;;;;;;5094258;28;20174;-70
2021/04/15 09:22:38;;;;;;;6.80;4.68;;;7.80;99.90;;;;;;5094387;28;20151;-69
2021/04/15 09:25:17;;;;;;;6.57;4.95;;;8.00;99.90;;;;;;5094078;28;20159;-69
2021/04/15 09:28:01;;;;;;;15.02;5.75;;;8.20;99.90;;;;;;5093666;28;20170;-71
2021/04/15 09:30:48;;;;;;;15.75;4.82;;;8.90;99.90;;;;;;5093956;28;20294;-70
2021/04/15 09:33:34;;;;;;;6.53;4.68;;;9.00;99.90;;;;;;5094047;28;20184;-71
2021/04/15 09:36:18;;;;;;;4.07;3.28;;;8.80;99.90;;;;;;5094428;28;20216;-70
2021/04/15 09:39:02;;;;;;;4.45;2.55;;;8.80;99.90;;;;;;5093857;28;20178;-69
2021/04/15 09:41:59;;;;;;;4.15;3.30;;;8.80;99.90;;;;;;5094124;28;20170;-70
2021/04/15 09:44:40;;;;;;;7.50;4.25;;;8.80;99.90;;;;;;5085692;28;20688;-68
2021/04/15 09:47:31;;;;;;;6.35;3.10;;;8.60;99.90;;;;;;5093415;28;20167;-70
2021/04/15 09:49:59;;;;;;;2.83;2.53;;;8.80;99.90;;;;;;5093764;28;20325;-68
2021/04/15 09:52:40;;;;;;;6.10;3.35;;;8.90;99.90;;;;;;5093661;28;20536;-69
2021/04/15 09:55:20;;;;;;;5.32;3.33;;;9.00;99.90;;;;;;5093092;28;20198;-68
2021/04/15 09:58:14;;;;;;;9.20;4.20;;;8.70;99.90;;;;;;5092737;28;20164;-69
2021/04/15 10:00:46;;;;;;;7.03;2.55;;;9.10;99.90;;;;;;5093442;28;20422;-69
2021/04/15 10:03:30;;;;;;;3.45;2.50;;;9.80;99.90;;;;;;5093005;28;20705;-69
2021/04/15 10:06:02;;;;;;;4.15;2.10;;;9.70;99.90;;;;;;5093101;28;20513;-69
2021/04/15 10:08:55;;;;;;;3.47;2.60;;;9.20;99.90;;;;;;5092822;28;20179;-69
2021/04/15 10:11:26;;;;;;;4.50;2.90;;;9.90;99.90;;;;;;5092933;28;20219;-68
2021/04/15 10:14:12;;;;;;;5.60;2.33;;;10.70;99.90;;;;;;5092813;28;20432;-70
2021/04/15 10:17:15;;;;;;;5.00;2.60;;;10.50;99.90;;;;;;5092600;28;20390;-69
2021/04/15 10:20:02;;;;;;;3.47;2.20;;;10.40;99.90;;;;;;5093369;28;20861;-71
2021/04/15 10:22:48;;;;;;;4.57;2.47;;;10.50;99.90;;;;;;5093322;28;20378;-70
2021/04/15 10:25:19;;;;;;;16.13;2.17;;;10.70;99.90;;;;;;5093420;28;20421;-69
2021/04/15 10:28:05;;;;;;;5.60;2.10;;;10.70;99.90;;;;;;5093963;28;20417;-71
2021/04/15 10:30:54;;;;;;;4.30;2.10;;;10.10;99.90;;;;;;5093541;28;20525;-70
2021/04/15 10:33:32;;;;;;;12.77;2.80;;;10.50;99.90;;;;;;5093278;28;20452;-68
2021/04/15 10:36:12;;;;;;;6.80;1.87;;;9.90;99.90;;;;;;5092494;28;20381;-67
2021/04/15 10:39:11;;;;;;;7.70;2.20;;;9.90;99.90;;;;;;5092614;28;20925;-68
2021/04/15 10:41:58;;;;;;;3.43;2.13;;;10.50;99.90;;;;;;5092723;28;20412;-66
2021/04/15 10:44:45;;;;;;;3.43;2.10;;;9.90;99.90;;;;;;5092653;28;20413;-68
2021/04/15 10:47:40;;;;;;;2.23;1.37;;;9.90;99.90;;;;;;5092125;28;20402;-68
2021/04/15 10:50:43;;;;;;;2.47;1.60;;;9.80;99.90;;;;;;5020168;28;20459;-68
2021/04/15 10:53:42;;;;;;;2.87;1.50;;;10.10;99.90;;;;;;5061173;28;20429;-69
2021/04/15 10:56:11;;;;;;;2.87;1.80;;;10.20;99.90;;;;;;5091608;28;20373;-67
2021/04/15 10:58:41;;;;;;;3.47;1.60;;;10.40;99.90;;;;;;5091810;28;20402;-67
2021/04/15 11:01:42;;;;;;;3.93;1.70;;;10.60;99.90;;;;;;5091699;28;20465;-67
2021/04/15 11:04:13;;;;;;;5.07;2.07;;;10.70;99.90;;;;;;5048564;28;20790;-68
2021/04/15 11:06:57;;;;;;;2.00;1.57;;;10.50;99.90;;;;;;5092299;28;20408;-68
2021/04/15 11:09:30;;;;;;;4.50;1.53;;;10.20;99.90;;;;;;5092149;28;20469;-68
2021/04/15 11:12:14;;;;;;;10.97;2.17;;;9.90;99.90;;;;;;5092309;28;20877;-68
2021/04/15 11:14:48;;;;;;;2.43;2.03;;;9.90;99.90;;;;;;5091806;28;20835;-68
2021/04/15 11:17:36;;;;;;;5.00;1.70;;;10.50;99.90;;;;;;5091646;28;20425;-68
2021/04/15 11:20:20;;;;;;;10.53;2.53;;;10.30;99.90;;;;;;5092357;28;20477;-69
2021/04/15 11:22:57;;;;;;;5.03;1.97;;;10.50;99.90;;;;;;5092303;28;20425;-69
2021/04/15 11:25:46;;;;;;;6.93;1.57;;;10.20;99.90;;;;;;5092006;28;20385;-70
2021/04/15 11:28:17;;;;;;;2.37;1.53;;;10.20;99.90;;;;;;5092306;28;20386;-69
2021/04/15 11:31:08;;;;;;;5.40;1.53;;;10.10;99.90;;;;;;5095763;28;20463;-70
2021/04/15 11:33:34;;;;;;;3.10;1.67;;;10.80;99.90;;;;;;5057339;28;21037;-69
2021/04/15 11:36:30;;;;;;;4.33;2.03;;;11.70;99.90;;;;;;5095893;28;20484;-69
2021/04/15 11:39:05;;;;;;;11.37;2.17;;;11.20;99.90;;;;;;5095924;28;20191;-69
2021/04/15 11:41:35;;;;;;;2.90;1.67;;;11.00;99.90;;;;;;5095687;28;20484;-68
2021/04/15 11:44:10;;;;;;;3.60;1.90;;;11.30;99.90;;;;;;5095241;28;20521;-69
2021/04/15 11:46:47;;;;;;;4.23;2.00;;;11.00;99.90;;;;;;5095231;28;20401;-69
2021/04/15 11:49:19;;;;;;;1.77;1.47;;;10.90;99.90;;;;;;5095578;28;20463;-69
2021/04/15 11:51:59;;;;;;;6.23;3.10;;;10.70;99.90;;;;;;5095644;28;20406;-69
2021/04/15 11:54:33;;;;;;;7.20;2.27;;;10.70;99.90;;;;;;5095659;28;20774;-69
2021/04/15 11:57:33;;;;;;;2.30;1.67;;;10.90;99.90;;;;;;5095626;28;20748;-69
2021/04/15 12:00:04;;;;;;;5.13;1.77;;;10.80;99.90;;;;;;5095234;28;20409;-69
2021/04/15 12:02:30;;;;;;;2.70;1.83;;;10.40;99.90;;;;;;5095494;28;20809;-70
2021/04/15 12:05:15;;;;;;;4.73;1.57;;;10.70;99.90;;;;;;5095127;28;20409;-69
2021/04/15 12:07:51;;;;;;;3.07;2.07;;;10.80;99.90;;;;;;5094885;28;20229;-68
2021/04/15 12:10:21;;;;;;;3.50;1.97;;;11.10;99.90;;;;;;5095183;28;20400;-69
2021/04/15 12:12:49;;;;;;;11.50;2.80;;;10.80;99.90;;;;;;5094954;28;20420;-68
2021/04/15 12:15:22;;;;;;;6.33;2.47;;;10.90;99.90;;;;;;5094639;28;20411;-68
2021/04/15 12:18:11;;;;;;;2.87;1.93;;;11.00;99.90;;;;;;5095123;28;20415;-68
2021/04/15 12:20:52;;;;;;;9.00;2.57;;;10.70;99.90;;;;;;5094999;28;20383;-68
2021/04/15 12:23:50;;;;;;;6.23;2.93;;;10.50;99.90;;;;;;5094881;28;20515;-68
2021/04/15 12:26:19;;;;;;;4.67;2.70;;;10.50;99.90;;;;;;5094850;28;20394;-69
2021/04/15 12:28:56;;;;;;;5.53;2.67;;;10.40;99.90;;;;;;5094472;28;20474;-69
2021/04/15 12:31:45;;;;;;;6.13;2.50;;;10.70;99.90;;;;;;5094610;28;20423;-69
2021/04/15 12:34:13;;;;;;;5.40;1.93;;;10.50;99.90;;;;;;5056455;28;20432;-69
2021/04/15 12:36:46;;;;;;;6.47;2.50;;;10.30;99.90;;;;;;5094605;28;20488;-69
2021/04/15 12:39:21;;;;;;;3.20;2.03;;;10.40;99.90;;;;;;5094556;28;20396;-69
2021/04/15 12:41:47;;;;;;;2.63;1.80;;;10.80;99.90;;;;;;5092659;28;20383;-69
2021/04/15 12:44:28;;;;;;;3.53;2.57;;;10.80;99.90;;;;;;5094299;28;20408;-69
2021/04/15 12:46:56;;;;;;;5.30;2.30;;;11.20;99.90;;;;;;5094476;28;20163;-70
2021/04/15 12:49:24;;;;;;;3.73;2.33;;;10.80;99.90;;;;;;5094544;28;20419;-70
2021/04/15 12:51:55;;;;;;;2.37;2.17;;;11.10;99.90;;;;;;5094277;28;20428;-69
2021/04/15 12:54:26;;;;;;;3.10;2.23;;;11.50;99.90;;;;;;5094280;28;20544;-70
2021/04/15 12:56:54;;;;;;;5.43;3.47;;;11.80;99.90;;;;;;5094064;28;20386;-69
2021/04/15 12:59:47;;;;;;;4.80;2.73;;;11.00;99.90;;;;;;5094042;28;20420;-69
2021/04/15 13:02:31;;;;;;;5.30;3.03;;;11.70;99.90;;;;;;5094070;28;20440;-69
2021/04/15 13:05:10;;;;;;;4.23;2.50;;;11.60;99.90;;;;;;5094245;28;20393;-69
2021/04/15 13:07:39;;;;;;;8.40;2.80;;;12.60;99.90;;;;;;5093740;28;20437;-68
2021/04/15 13:10:30;;;;;;;3.87;2.70;;;12.90;99.90;;;;;;5093917;28;20449;-69
2021/04/15 13:12:58;;;;;;;5.60;3.00;;;12.40;99.90;;;;;;5084384;28;20516;-69
2021/04/15 13:15:23;;;;;;;8.50;3.63;;;12.10;99.90;;;;;;5093866;28;20495;-69
2021/04/15 13:18:00;;;;;;;5.43;3.17;;;13.00;99.90;;;;;;5093882;28;20478;-69
2021/04/15 13:20:26;;;;;;;4.70;2.80;;;13.70;99.90;;;;;;5092420;28;20190;-69
2021/04/15 13:23:16;;;;;;;5.90;2.97;;;13.90;99.90;;;;;;5093573;28;20434;-68
2021/04/15 13:25:51;;;;;;;6.73;3.70;;;12.70;99.90;;;;;;5094164;28;20183;-69
2021/04/15 13:28:20;;;;;;;5.17;2.70;;;13.30;99.90;;;;;;5093809;28;20409;-68
2021/04/15 13:30:45;;;;;;;7.17;3.10;;;13.90;99.90;;;;;;5093342;28;20445;-70
2021/04/15 13:33:15;;;;;;;4.20;2.70;;;14.30;99.90;;;;;;5093296;28;20423;-69
2021/04/15 13:35:45;;;;;;;4.70;2.20;;;13.80;99.90;;;;;;5093597;28;20175;-67
2021/04/15 13:38:29;;;;;;;4.57;2.60;;;14.80;99.90;;;;;;5093786;28;20477;-69
2021/04/15 13:40:56;;;;;;;3.60;2.57;;;15.20;99.90;;;;;;5093829;28;20407;-69
2021/04/15 13:43:50;;;;;;;6.60;3.17;;;15.00;99.90;;;;;;5091999;28;20748;-69
2021/04/15 13:46:22;;;;;;;4.80;3.03;;;14.60;99.90;;;;;;5092041;28;20402;-69
2021/04/15 13:48:50;;;;;;;3.27;2.37;;;15.00;99.90;;;;;;5093609;28;20411;-69
2021/04/15 13:51:26;;;;;;;7.73;3.70;;;15.00;99.90;;;;;;5091458;28;20508;-69
2021/04/15 13:54:06;;;;;;;4.10;2.27;;;14.20;99.90;;;;;;5091876;28;20897;-69
2021/04/15 13:56:49;;;;;;;5.50;3.60;;;13.80;99.90;;;;;;5093692;28;20424;-70